Time;durP1;ratioP1;P1;durP2;ratioP2;P2;SDS_P1;SDS_P2;PMS_P1;PMS_P2;Temp;Humidity;BMP_temperature;BMP_pressure;BME280_temperature;BME280_humidity;BME280_pressure;Samples;Min_cycle;Max_cycle;Signal;HPM_P1;HPM_P2
2022/08/20 00:00:41;;;;;;;13.70;10.30;;;;;;;20.50;79.98;101454.69;6210507;23;20497;-94
2022/08/20 00:03:20;;;;;;;17.15;11.30;;;;;;;20.55;79.99;101463.25;6212425;23;20420;-93
2022/08/20 00:05:56;;;;;;;13.77;10.52;;;;;;;20.64;79.72;101457.22;6212619;23;20005;-92
2022/08/20 00:08:22;;;;;;;20.60;12.02;;;;;;;20.71;79.92;101457.66;6185598;23;20641;-94
2022/08/20 00:10:50;;;;;;;14.65;10.68;;;;;;;20.76;79.27;101456.34;6184945;23;20420;-92
2022/08/20 00:13:21;;;;;;;16.27;11.77;;;;;;;20.80;80.01;101451.59;6212244;23;20015;-93
2022/08/20 00:15:46;;;;;;;18.45;12.10;;;;;;;20.78;79.60;101451.69;6183647;23;20585;-93
2022/08/20 00:18:13;;;;;;;16.25;12.30;;;;;;;20.83;79.85;101459.44;6211800;23;20167;-93
2022/08/20 00:20:43;;;;;;;18.13;12.18;;;;;;;20.80;79.61;101462.34;6185613;23;20455;-92
2022/08/20 00:23:08;;;;;;;16.10;12.13;;;;;;;20.79;80.09;101447.19;6185028;23;20006;-92
2022/08/20 00:25:34;;;;;;;13.13;11.18;;;;;;;20.77;79.59;101447.31;6185134;23;20083;-93
2022/08/20 00:28:02;;;;;;;15.73;11.73;;;;;;;20.69;79.85;101436.25;6211743;23;20004;-92
2022/08/20 00:30:30;;;;;;;15.35;11.55;;;;;;;20.77;79.96;101441.94;6184099;23;20001;-91
2022/08/20 00:33:02;;;;;;;13.82;10.75;;;;;;;20.73;79.72;101434.19;6184205;23;20005;-91
2022/08/20 00:35:30;;;;;;;14.95;11.40;;;;;;;20.76;78.72;101442.91;6184919;23;20004;-92
2022/08/20 00:37:55;;;;;;;18.42;11.90;;;;;;;20.80;80.28;101447.09;6184932;23;20455;-92
2022/08/20 00:40:25;;;;;;;17.70;11.68;;;;;;;20.81;80.36;101446.09;6184626;23;20013;-91
2022/08/20 00:42:56;;;;;;;17.63;12.98;;;;;;;20.76;80.61;101448.28;6184173;23;20013;-91
2022/08/20 00:45:21;;;;;;;17.37;12.20;;;;;;;20.73;80.85;101439.56;6183758;23;20428;-92
2022/08/20 00:47:46;;;;;;;15.93;11.27;;;;;;;20.62;80.75;101441.22;6211757;23;20035;-93
2022/08/20 00:50:16;;;;;;;18.02;12.15;;;;;;;20.59;80.63;101443.28;6211379;23;20000;-93
2022/08/20 00:52:46;;;;;;;16.50;11.77;;;;;;;20.57;81.35;101451.44;6184410;23;20032;-93
2022/08/20 00:55:13;;;;;;;19.50;12.93;;;;;;;20.63;80.50;101450.13;6211779;23;20054;-92
2022/08/20 00:57:52;;;;;;;17.35;12.77;;;;;;;20.58;80.67;101426.28;6210344;23;20420;-92
2022/08/20 01:00:26;;;;;;;16.92;12.73;;;;;;;20.63;81.18;101450.13;6184176;23;20004;-93
2022/08/20 01:02:53;;;;;;;16.52;11.63;;;;;;;20.49;80.26;101445.75;6183668;23;20694;-92
2022/08/20 01:05:20;;;;;;;20.95;13.43;;;;;;;20.39;81.44;101448.22;6184386;23;20463;-93
2022/08/20 01:07:45;;;;;;;20.25;13.57;;;;;;;20.44;81.23;101433.63;6211801;23;20368;-91
2022/08/20 01:10:15;;;;;;;20.17;14.05;;;;;;;20.56;81.62;101441.69;6210035;23;20011;-92
2022/08/20 01:12:45;;;;;;;19.40;13.40;;;;;;;20.48;81.74;101448.56;6184853;23;20024;-92
2022/08/20 01:15:14;;;;;;;16.77;13.00;;;;;;;20.50;81.35;101443.94;6184223;23;20432;-92
2022/08/20 01:17:46;;;;;;;17.40;12.50;;;;;;;20.61;80.89;101452.94;6211786;23;20008;-92
2022/08/20 01:20:25;;;;;;;16.73;11.85;;;;;;;20.63;80.22;101434.03;6210159;23;20372;-92
2022/08/20 01:23:28;;;;;;;15.85;12.52;;;;;;;20.70;80.30;101446.03;6210787;23;20001;-91
2022/08/20 01:26:02;;;;;;;16.75;12.63;;;;;;;20.70;80.53;101443.34;6211571;23;20076;-92
2022/08/20 01:28:44;;;;;;;19.35;12.65;;;;;;;20.80;80.31;101451.59;6211107;23;20334;-92
2022/08/20 01:31:13;;;;;;;15.47;12.13;;;;;;;20.73;80.37;101442.25;6183666;23;20395;-92
2022/08/20 01:33:40;;;;;;;18.40;11.57;;;;;;;20.69;80.44;101444.31;6211121;23;20232;-92
2022/08/20 01:36:06;;;;;;;17.63;11.77;;;;;;;20.70;80.04;101443.34;6184642;23;20087;-92
2022/08/20 01:38:32;;;;;;;15.60;12.75;;;;;;;20.71;80.33;101442.38;6183719;23;20003;-92
2022/08/20 01:41:06;;;;;;;15.05;11.80;;;;;;;20.69;80.36;101449.69;6183327;23;20011;-91
2022/08/20 01:43:32;;;;;;;15.00;12.48;;;;;;;20.58;80.45;101437.03;6210799;23;20004;-91
2022/08/20 01:45:57;;;;;;;16.23;12.82;;;;;;;20.53;80.47;101433.84;6183757;23;20011;-92
2022/08/20 01:48:23;;;;;;;17.77;13.57;;;;;;;20.50;80.55;101442.09;6184083;23;20091;-91
2022/08/20 01:51:00;;;;;;;21.77;13.40;;;;;;;20.52;80.64;101452.75;6183379;23;20015;-91
2022/08/20 01:53:38;;;;;;;17.58;13.77;;;;;;;20.56;80.71;101449.75;6210957;23;20016;-92
2022/08/20 01:56:09;;;;;;;20.42;13.32;;;;;;;20.47;80.97;101449.47;6184083;23;20008;-93
2022/08/20 01:58:38;;;;;;;18.17;14.05;;;;;;;20.45;80.88;101440.69;6183406;23;20038;-91
2022/08/20 02:01:03;;;;;;;19.27;14.30;;;;;;;20.42;80.94;101447.13;6183270;23;20008;-91
2022/08/20 02:03:29;;;;;;;22.50;14.40;;;;;;;20.42;80.57;101443.59;6210651;23;20149;-91
2022/08/20 02:05:57;;;;;;;19.88;14.68;;;;;;;20.41;81.17;101450.78;6184617;23;20031;-92
2022/08/20 02:08:23;;;;;;;23.58;14.77;;;;;;;20.38;81.12;101445.66;6183879;23;20341;-92
2022/08/20 02:10:48;;;;;;;18.10;14.38;;;;;;;20.44;81.23;101455.09;6183393;23;20008;-92
2022/08/20 02:13:15;;;;;;;20.52;15.68;;;;;;;20.38;81.38;101443.84;6183775;23;20008;-92
2022/08/20 02:15:41;;;;;;;17.25;14.48;;;;;;;20.29;81.37;101439.13;6210378;23;20011;-92
2022/08/20 02:18:09;;;;;;;21.42;14.88;;;;;;;20.27;81.12;101445.56;6183446;23;20000;-92
2022/08/20 02:20:36;;;;;;;21.08;15.20;;;;;;;20.29;81.63;101446.31;6210992;23;20367;-92
2022/08/20 02:23:02;;;;;;;20.67;13.82;;;;;;;20.26;80.66;101443.84;6184121;23;20027;-92
2022/08/20 02:25:30;;;;;;;23.17;14.45;;;;;;;20.23;81.45;101455.66;6184249;23;20395;-91
2022/08/20 02:27:56;;;;;;;22.08;14.57;;;;;;;20.24;81.67;101462.75;6183289;23;20092;-92
2022/08/20 02:30:32;;;;;;;21.80;13.77;;;;;;;20.29;81.20;101460.59;6183525;23;20420;-92
2022/08/20 02:32:58;;;;;;;21.50;14.15;;;;;;;20.28;81.46;101453.50;6183878;23;20039;-93
2022/08/20 02:35:24;;;;;;;20.77;14.73;;;;;;;20.23;81.33;101446.72;6184310;23;20321;-92
2022/08/20 02:37:50;;;;;;;22.52;15.43;;;;;;;20.19;81.11;101446.13;6210075;23;20014;-93
2022/08/20 02:40:18;;;;;;;19.90;14.98;;;;;;;20.11;81.40;101451.16;6183664;23;20597;-92
2022/08/20 02:42:44;;;;;;;20.90;14.88;;;;;;;20.21;81.55;101460.28;6210533;23;20004;-93
2022/08/20 02:45:13;;;;;;;24.02;14.85;;;;;;;20.18;80.97;101460.47;6182198;23;20011;-94
2022/08/20 02:47:39;;;;;;;27.70;16.80;;;;;;;20.12;81.81;101451.03;6182888;23;20087;-93
2022/08/20 02:50:06;;;;;;;25.75;15.75;;;;;;;20.14;81.43;101458.97;6182536;23;20028;-93
2022/08/20 02:52:31;;;;;;;29.23;16.80;;;;;;;20.16;81.03;101462.44;6183607;23;20500;-92
2022/08/20 02:54:57;;;;;;;26.58;16.75;;;;;;;20.21;81.11;101459.41;6183914;23;20012;-92
2022/08/20 02:57:22;;;;;;;26.95;17.67;;;;;;;20.18;81.35;101456.94;6183914;23;20036;-92
2022/08/20 02:59:48;;;;;;;31.98;18.50;;;;;;;20.17;80.74;101464.13;6182818;23;20008;-92
2022/08/20 03:02:14;;;;;;;28.45;18.42;;;;;;;20.15;81.23;101463.41;6210487;23;20004;-93
2022/08/20 03:04:41;;;;;;;29.50;19.85;;;;;;;20.10;81.13;101473.63;6183340;23;20034;-92
2022/08/20 03:07:09;;;;;;;33.55;20.48;;;;;;;20.01;81.46;101467.06;6183926;23;20001;-93
2022/08/20 03:09:35;;;;;;;33.10;20.92;;;;;;;19.97;81.52;101462.88;6182594;23;20432;-91
2022/08/20 03:12:01;;;;;;;32.15;20.35;;;;;;;19.96;81.33;101460.25;6183690;23;20005;-91
2022/08/20 03:14:27;;;;;;;30.10;20.33;;;;;;;19.95;80.78;101459.41;6209683;23;20436;-92
2022/08/20 03:16:52;;;;;;;32.15;21.13;;;;;;;20.00;81.03;101469.81;6183538;23;20058;-92
2022/08/20 03:19:18;;;;;;;35.92;21.85;;;;;;;19.95;81.43;101461.25;6209762;23;20017;-91
2022/08/20 03:21:43;;;;;;;37.72;23.40;;;;;;;19.92;81.55;101465.00;6184258;23;20000;-93
2022/08/20 03:24:09;;;;;;;31.67;22.88;;;;;;;19.85;81.78;101459.19;6182347;23;20518;-92
2022/08/20 03:26:34;;;;;;;34.90;24.15;;;;;;;19.93;80.94;101465.88;6206815;23;20015;-93
2022/08/20 03:29:00;;;;;;;38.38;24.15;;;;;;;19.94;81.40;101473.81;6181935;23;20170;-91
2022/08/20 03:31:25;;;;;;;37.83;22.42;;;;;;;19.93;81.45;101468.56;6210151;23;20005;-92
2022/08/20 03:33:51;;;;;;;38.55;24.30;;;;;;;19.92;81.35;101469.53;6209624;23;20012;-91
2022/08/20 03:36:17;;;;;;;31.25;21.38;;;;;;;19.96;81.52;101471.88;6210284;23;20062;-94
2022/08/20 03:38:43;;;;;;;32.78;23.23;;;;;;;19.94;81.02;101475.63;6209818;23;20036;-92
2022/08/20 03:41:08;;;;;;;37.78;23.95;;;;;;;19.97;80.87;101468.22;6209318;23;20004;-95
2022/08/20 03:43:34;;;;;;;40.63;24.27;;;;;;;19.93;80.86;101469.41;6210186;23;20007;-91
2022/08/20 03:46:00;;;;;;;39.17;23.95;;;;;;;19.88;80.90;101472.41;6209887;23;20379;-93
2022/08/20 03:48:26;;;;;;;35.47;23.45;;;;;;;19.93;80.94;101480.16;6182477;23;20019;-93
2022/08/20 03:50:51;;;;;;;34.78;23.65;;;;;;;19.92;81.13;101470.38;6183722;23;20508;-92
2022/08/20 03:53:18;;;;;;;38.38;24.02;;;;;;;19.96;80.68;101482.63;6183490;23;20016;-93
2022/08/20 03:55:45;;;;;;;34.95;23.55;;;;;;;19.94;80.92;101481.84;6183498;23;20008;-92
2022/08/20 03:58:12;;;;;;;40.15;24.88;;;;;;;19.84;81.16;101470.03;6182883;23;20500;-92
2022/08/20 04:00:49;;;;;;;40.65;24.83;;;;;;;19.94;80.99;101478.31;6184032;23;20356;-93
2022/08/20 04:03:15;;;;;;;39.42;24.10;;;;;;;19.92;81.05;101481.13;6185459;23;20606;-90
2022/08/20 04:05:41;;;;;;;37.03;24.38;;;;;;;19.85;81.00;101475.28;6185385;23;20001;-89
2022/08/20 04:08:11;;;;;;;36.03;23.63;;;;;;;19.91;81.09;101486.56;6183861;23;20008;-89
2022/08/20 04:10:37;;;;;;;34.47;25.00;;;;;;;19.89;80.52;101492.06;6211358;23;20047;-90
2022/08/20 04:13:05;;;;;;;32.28;22.77;;;;;;;19.82;80.36;101480.03;6185080;23;20084;-89
2022/08/20 04:15:33;;;;;;;34.47;23.38;;;;;;;19.85;80.29;101494.09;6212029;23;20016;-89
2022/08/20 04:17:58;;;;;;;36.00;25.35;;;;;;;19.75;80.66;101497.50;6184504;23;20493;-89
2022/08/20 04:20:24;;;;;;;34.25;23.42;;;;;;;19.65;80.24;101486.53;6212096;23;20051;-90
2022/08/20 04:22:54;;;;;;;33.75;22.48;;;;;;;19.67;80.23;101495.34;6185746;23;20012;-89
2022/08/20 04:25:20;;;;;;;37.75;23.45;;;;;;;19.64;80.33;101494.72;6185638;23;20334;-89
2022/08/20 04:27:48;;;;;;;35.42;22.33;;;;;;;19.66;79.35;101507.03;6211460;23;20014;-89
2022/08/20 04:30:14;;;;;;;38.47;22.20;;;;;;;19.58;79.99;101493.25;6210356;23;20062;-90
2022/08/20 04:32:40;;;;;;;36.50;22.63;;;;;;;19.57;79.91;101503.13;6184583;23;20001;-89
2022/08/20 04:35:10;;;;;;;31.13;20.17;;;;;;;19.59;80.18;101505.72;6211826;23;20012;-89
2022/08/20 04:37:38;;;;;;;35.15;21.23;;;;;;;19.51;79.73;101495.50;6184517;23;20368;-89
2022/08/20 04:42:55;;;;;;;31.48;20.42;;;;;;;19.49;80.05;101516.19;6211798;23;20063;-89
2022/08/20 04:45:21;;;;;;;33.17;19.33;;;;;;;19.36;79.88;101504.56;6211277;23;20019;-89
2022/08/20 04:47:47;;;;;;;36.03;19.90;;;;;;;19.41;80.29;101517.66;6211175;23;20004;-89
2022/08/20 04:50:13;;;;;;;38.03;19.02;;;;;;;19.42;79.47;101530.97;6210242;23;20004;-90
2022/08/20 04:52:39;;;;;;;32.22;18.38;;;;;;;19.37;79.71;101536.63;6185620;23;20077;-89
2022/08/20 04:55:06;;;;;;;31.77;18.50;;;;;;;19.31;79.64;101523.66;6210682;23;20472;-89
2022/08/20 04:57:32;;;;;;;33.15;19.13;;;;;;;19.23;79.75;101525.09;6211536;23;20011;-89
2022/08/20 04:59:58;;;;;;;29.73;19.17;;;;;;;19.28;80.15;101528.34;6183445;23;20004;-89
2022/08/20 05:02:23;;;;;;;35.35;20.77;;;;;;;19.23;79.94;101519.75;6184453;23;20039;-89
2022/08/20 05:04:48;;;;;;;28.52;18.88;;;;;;;19.30;79.86;101534.44;6210432;23;20012;-89
2022/08/20 05:07:17;;;;;;;30.85;19.50;;;;;;;19.35;80.53;101543.94;6211313;23;20000;-90
2022/08/20 05:09:43;;;;;;;35.10;21.27;;;;;;;19.34;80.03;101541.34;6182715;23;20004;-89
2022/08/20 05:12:09;;;;;;;33.88;21.02;;;;;;;19.32;80.31;101544.13;6184416;23;20091;-88
2022/08/20 05:14:34;;;;;;;32.58;22.73;;;;;;;19.24;80.17;101538.41;6184662;23;20009;-89
2022/08/20 05:17:04;;;;;;;36.30;23.45;;;;;;;19.21;80.16;101543.97;6212087;23;20103;-89
2022/08/20 05:19:29;;;;;;;41.42;22.88;;;;;;;19.24;80.19;101540.22;6182662;23;20009;-88
2022/08/20 05:21:55;;;;;;;40.70;24.70;;;;;;;19.22;79.54;101537.66;6211147;23;20328;-89
2022/08/20 05:24:20;;;;;;;35.40;24.42;;;;;;;19.17;79.99;101534.41;6184459;23;20513;-89
2022/08/20 05:26:46;;;;;;;40.35;25.27;;;;;;;19.20;79.68;101542.22;6211857;23;19997;-89
2022/08/20 05:29:12;;;;;;;37.53;23.92;;;;;;;19.09;80.71;101534.03;6210274;23;20005;-89
2022/08/20 05:31:38;;;;;;;41.22;26.38;;;;;;;19.20;80.04;101536.88;6184160;23;20044;-89
2022/08/20 05:34:08;;;;;;;45.08;27.27;;;;;;;19.20;80.44;101542.22;6183765;23;20334;-89
2022/08/20 05:36:35;;;;;;;44.20;27.80;;;;;;;19.25;80.28;101560.69;6184259;23;20041;-89
2022/08/20 05:39:01;;;;;;;43.42;27.73;;;;;;;19.25;79.92;101545.47;6211394;23;20001;-89
2022/08/20 05:41:28;;;;;;;44.88;28.13;;;;;;;19.42;80.21;101564.97;6184123;23;20080;-89
2022/08/20 05:43:54;;;;;;;41.92;27.77;;;;;;;19.33;79.83;101544.97;6184322;23;20015;-89
2022/08/20 05:46:19;;;;;;;45.92;28.48;;;;;;;19.34;79.69;101555.59;6184583;23;20264;-89
2022/08/20 05:48:44;;;;;;;51.17;29.58;;;;;;;19.35;79.80;101543.94;6183709;23;20009;-89
2022/08/20 05:51:10;;;;;;;46.03;29.65;;;;;;;19.48;79.37;101556.50;6210790;23;20443;-89
2022/08/20 05:53:36;;;;;;;41.83;27.70;;;;;;;19.55;78.96;101557.84;6183770;23;20074;-89
2022/08/20 05:56:02;;;;;;;51.08;29.45;;;;;;;19.60;79.67;101563.78;6185010;23;20015;-89
2022/08/20 05:58:28;;;;;;;44.83;28.38;;;;;;;19.58;79.19;101565.66;6210164;23;20000;-89
2022/08/20 06:00:54;;;;;;;46.63;29.30;;;;;;;19.60;79.60;101567.34;6183733;23;20405;-89
2022/08/20 06:06:05;;;;;;;47.33;28.90;;;;;;;19.70;79.04;101572.09;6211518;23;20621;-89
2022/08/20 06:08:31;;;;;;;42.75;25.55;;;;;;;19.66;78.63;101567.88;6182223;23;20004;-89
2022/08/20 06:10:57;;;;;;;45.28;28.17;;;;;;;19.61;78.39;101569.03;6210853;23;20011;-89
2022/08/20 06:13:22;;;;;;;47.15;27.92;;;;;;;19.57;78.82;101572.84;6210330;23;20004;-90
2022/08/20 06:15:48;;;;;;;49.33;28.73;;;;;;;19.52;78.70;101571.44;6210175;23;20004;-89
2022/08/20 06:18:13;;;;;;;46.13;28.73;;;;;;;19.56;79.06;101571.13;6210714;23;20324;-89
2022/08/20 06:20:39;;;;;;;45.30;27.90;;;;;;;19.55;79.11;101577.47;6209810;23;20317;-89
2022/08/20 06:23:05;;;;;;;47.75;29.00;;;;;;;19.53;79.12;101579.38;6210398;23;20008;-89
2022/08/20 06:25:31;;;;;;;46.92;27.85;;;;;;;19.55;78.76;101579.31;6210797;23;20011;-89
2022/08/20 06:27:56;;;;;;;44.95;28.73;;;;;;;19.63;79.45;101571.63;6183532;23;20011;-90
2022/08/20 06:30:22;;;;;;;48.63;28.88;;;;;;;19.82;79.16;101574.81;6211274;23;20005;-89
2022/08/20 06:32:50;;;;;;;45.10;27.67;;;;;;;19.84;78.70;101567.50;6211064;23;20018;-89
2022/08/20 06:35:15;;;;;;;52.50;30.95;;;;;;;19.86;79.17;101573.66;6209353;23;20424;-89
2022/08/20 06:37:41;;;;;;;48.20;29.40;;;;;;;19.73;78.85;101562.00;6209951;23;20004;-89
2022/08/20 06:40:16;;;;;;;55.25;30.77;;;;;;;19.74;79.05;101585.19;6182655;23;20234;-90
2022/08/20 06:42:42;;;;;;;48.25;28.10;;;;;;;19.86;79.26;101580.81;6211265;23;20008;-89
2022/08/20 06:45:23;;;;;;;44.67;28.55;;;;;;;19.96;78.49;101581.94;6183418;23;20450;-88
2022/08/20 06:47:50;;;;;;;54.33;31.52;;;;;;;20.02;77.95;101581.50;6182859;23;20008;-88
2022/08/20 06:50:24;;;;;;;46.53;28.90;;;;;;;19.96;77.91;101565.81;6208619;23;20004;-88
2022/08/20 06:52:49;;;;;;;42.80;27.30;;;;;;;20.10;77.35;101576.47;6210907;23;20052;-88
2022/08/20 06:55:16;;;;;;;46.13;28.52;;;;;;;20.22;77.91;101573.91;6183272;23;20007;-87
2022/08/20 06:57:42;;;;;;;45.63;28.13;;;;;;;20.27;77.35;101572.63;6184685;23;20008;-87
2022/08/20 07:00:13;;;;;;;51.00;28.60;;;;;;;20.38;76.84;101572.75;6182329;23;20077;-87
2022/08/20 07:02:38;;;;;;;47.33;28.80;;;;;;;20.48;76.21;101581.06;6210392;23;20012;-88
2022/08/20 07:05:05;;;;;;;43.80;27.77;;;;;;;20.57;76.53;101584.94;6209553;23;20388;-88
2022/08/20 07:07:30;;;;;;;41.55;28.27;;;;;;;20.60;76.06;101573.94;6183165;23;20039;-89
2022/08/20 07:10:08;;;;;;;50.00;29.55;;;;;;;20.70;76.32;101576.84;6208644;23;20487;-89
2022/08/20 07:12:35;;;;;;;51.20;27.88;;;;;;;20.71;75.49;101592.88;6183847;23;20032;-87
2022/08/20 07:15:00;;;;;;;44.17;28.38;;;;;;;20.64;75.56;101589.75;6209459;23;20463;-88
2022/08/20 07:17:26;;;;;;;42.28;27.63;;;;;;;20.62;76.49;101578.25;6183808;23;20004;-89
2022/08/20 07:19:51;;;;;;;44.13;27.65;;;;;;;20.68;75.65;101590.38;6182291;23;20001;-88
2022/08/20 07:22:16;;;;;;;43.28;27.63;;;;;;;20.62;75.60;101588.16;6182429;23;20001;-88
2022/08/20 07:24:43;;;;;;;38.92;26.35;;;;;;;20.67;76.02;101590.50;6183142;23;20027;-88
2022/08/20 07:27:08;;;;;;;37.75;25.48;;;;;;;20.81;75.11;101588.56;6184174;23;20042;-88
2022/08/20 07:32:36;;;;;;;39.35;25.58;;;;;;;21.07;74.57;101605.47;6209336;23;20020;-89
2022/08/20 07:35:04;;;;;;;43.03;24.80;;;;;;;21.14;74.28;101611.28;6209609;23;20005;-89
2022/08/20 07:37:30;;;;;;;32.47;21.00;;;;;;;21.12;73.82;101613.22;6213591;23;20550;-89
2022/08/20 07:39:56;;;;;;;33.20;22.73;;;;;;;21.08;73.99;101615.28;6210269;23;20024;-89
2022/08/20 07:42:21;;;;;;;31.08;19.80;;;;;;;21.14;74.13;101611.28;6185577;23;19996;-90
2022/08/20 07:44:47;;;;;;;29.45;21.42;;;;;;;21.12;74.66;101610.53;6211593;23;20413;-89
2022/08/20 07:47:16;;;;;;;28.30;20.05;;;;;;;21.18;72.90;101612.78;6212678;23;20464;-89
2022/08/20 07:49:41;;;;;;;28.35;21.40;;;;;;;21.28;73.86;101613.84;6211062;23;20005;-89
2022/08/20 07:52:07;;;;;;;28.48;19.80;;;;;;;21.37;72.09;101613.19;6210770;23;20004;-90
2022/08/20 07:54:34;;;;;;;27.02;19.83;;;;;;;21.84;70.88;101622.25;6210544;23;20432;-89
2022/08/20 07:57:03;;;;;;;33.00;22.48;;;;;;;22.21;71.22;101641.06;6212198;23;20450;-88
2022/08/20 07:59:29;;;;;;;28.35;19.60;;;;;;;22.71;69.03;101635.38;6210435;23;20000;-88
2022/08/20 08:01:55;;;;;;;26.70;17.10;;;;;;;22.91;65.43;101635.56;6209891;23;20075;-88
2022/08/20 08:04:23;;;;;;;28.00;17.30;;;;;;;22.92;66.48;101644.53;6211313;23;20035;-88
2022/08/20 08:06:49;;;;;;;24.20;17.25;;;;;;;22.75;66.37;101634.16;6184545;23;20004;-88
2022/08/20 08:09:15;;;;;;;27.02;16.23;;;;;;;22.60;66.17;101628.16;6184807;23;20025;-89
2022/08/20 08:11:43;;;;;;;28.50;16.52;;;;;;;22.63;66.40;101650.34;6209938;23;20017;-88
2022/08/20 08:14:10;;;;;;;21.73;16.17;;;;;;;22.97;64.84;101647.72;6184825;23;20013;-88
2022/08/20 08:16:39;;;;;;;22.15;16.00;;;;;;;23.52;63.42;101645.94;6211366;23;20004;-88
2022/08/20 08:19:10;;;;;;;24.10;15.40;;;;;;;24.23;61.62;101646.34;6185191;23;20000;-86
2022/08/20 08:21:36;;;;;;;21.92;16.77;;;;;;;24.47;61.28;101640.69;6182487;23;20452;-87
2022/08/20 08:24:01;;;;;;;22.23;14.85;;;;;;;24.81;59.46;101652.16;6211412;23;20180;-87
2022/08/20 08:26:27;;;;;;;21.13;14.38;;;;;;;24.93;57.57;101647.50;6184033;23;20368;-87
2022/08/20 08:28:53;;;;;;;24.88;13.48;;;;;;;24.81;57.33;101644.06;6183958;23;20424;-87
2022/08/20 08:31:18;;;;;;;18.35;12.60;;;;;;;24.57;57.13;101644.31;6210689;23;20008;-87
2022/08/20 08:33:45;;;;;;;19.55;12.52;;;;;;;24.32;57.12;101650.09;6184823;23;20008;-87
2022/08/20 08:36:13;;;;;;;19.48;13.00;;;;;;;24.04;58.55;101652.44;6211346;23;20470;-87
2022/08/20 08:38:43;;;;;;;18.33;14.00;;;;;;;24.54;62.28;101654.56;6210583;23;20005;-87
2022/08/20 08:41:30;;;;;;;18.70;12.82;;;;;;;25.51;57.96;101650.47;6182660;23;20448;-86
2022/08/20 08:44:09;;;;;;;19.10;13.23;;;;;;;25.86;57.63;101655.38;6210451;23;20027;-86
2022/08/20 08:46:40;;;;;;;16.77;12.82;;;;;;;26.34;54.04;101656.38;6211150;23;20424;-85
2022/08/20 08:49:08;;;;;;;15.85;10.20;;;;;;;26.59;48.42;101655.81;6208486;23;20426;-86
2022/08/20 08:51:55;;;;;;;15.65;10.07;;;;;;;27.09;51.87;101665.53;6182606;23;20008;-85
2022/08/20 08:54:23;;;;;;;17.83;9.27;;;;;;;27.51;47.88;101663.16;6180540;23;20078;-85
2022/08/20 08:56:49;;;;;;;13.77;7.82;;;;;;;28.20;45.67;101672.56;6212191;23;19997;-85
2022/08/20 08:59:14;;;;;;;11.93;7.60;;;;;;;28.80;44.40;101670.00;6183404;23;20001;-86
2022/08/20 09:01:45;;;;;;;13.43;7.90;;;;;;;28.31;43.78;101664.19;6209763;23;20000;-85
2022/08/20 09:04:12;;;;;;;13.70;8.52;;;;;;;27.75;44.79;101661.78;6210631;23;20024;-86
2022/08/20 09:06:39;;;;;;;14.40;8.02;;;;;;;28.13;44.59;101666.06;6181945;23;20004;-85
2022/08/20 09:09:09;;;;;;;12.02;7.82;;;;;;;29.25;44.34;101666.19;6209444;23;20005;-86
2022/08/20 09:11:48;;;;;;;14.70;8.60;;;;;;;29.97;43.81;101666.59;6209376;23;20479;-85
2022/08/20 09:14:14;;;;;;;14.68;8.52;;;;;;;30.22;41.55;101667.50;6183373;23;20421;-85
2022/08/20 09:16:39;;;;;;;10.43;7.68;;;;;;;30.85;40.33;101666.78;6182663;23;20039;-85
2022/08/20 09:19:04;;;;;;;11.73;6.27;;;;;;;30.21;38.23;101669.34;6208211;23;20035;-86
2022/08/20 09:21:30;;;;;;;12.82;6.80;;;;;;;28.81;40.83;101668.13;6208713;23;20670;-86
2022/08/20 09:23:55;;;;;;;11.77;6.60;;;;;;;29.04;42.20;101672.03;6183299;23;20001;-85
2022/08/20 09:26:20;;;;;;;10.95;6.38;;;;;;;30.14;41.42;101662.88;6184028;23;20004;-85
2022/08/20 09:28:45;;;;;;;11.80;6.22;;;;;;;30.48;37.76;101668.16;6208619;23;20251;-85
2022/08/20 09:31:11;;;;;;;10.70;7.68;;;;;;;30.98;35.93;101663.50;6209515;23;20037;-85
2022/08/20 09:33:36;;;;;;;12.25;6.85;;;;;;;31.29;38.56;101659.97;6209749;23;20008;-85
2022/08/20 09:36:02;;;;;;;10.38;7.05;;;;;;;31.88;38.06;101663.94;6209944;23;20336;-85
2022/08/20 09:38:27;;;;;;;12.13;6.40;;;;;;;32.14;35.29;101660.00;6210070;23;20004;-85
2022/08/20 09:40:52;;;;;;;7.88;5.97;;;;;;;32.47;34.55;101677.03;6208936;23;20041;-85
2022/08/20 09:43:18;;;;;;;11.55;5.65;;;;;;;32.44;32.66;101661.81;6210921;23;20005;-85
2022/08/20 09:45:43;;;;;;;11.32;7.03;;;;;;;32.39;33.95;101661.53;6209255;23;20075;-85
2022/08/20 09:48:08;;;;;;;10.77;6.43;;;;;;;32.32;33.42;101657.81;6208969;23;20015;-84
2022/08/20 09:50:35;;;;;;;9.90;6.20;;;;;;;31.53;35.01;101667.25;6181467;23;20778;-85
2022/08/20 09:53:02;;;;;;;8.40;6.30;;;;;;;31.43;36.05;101667.44;6183019;23;20026;-84
2022/08/20 09:55:37;;;;;;;6.25;4.00;;;;;;;32.04;37.19;101659.38;6208893;23;20007;-85
2022/08/20 09:58:18;;;;;;;7.45;3.58;;;;;;;31.16;35.67;101666.00;6209207;23;20039;-85
2022/08/20 10:00:43;;;;;;;4.93;2.72;;;;;;;30.07;35.11;101663.69;6180558;23;20123;-86
2022/08/20 10:03:08;;;;;;;5.57;2.92;;;;;;;30.48;34.52;101659.13;6183511;23;20428;-85
2022/08/20 10:05:34;;;;;;;6.43;2.60;;;;;;;30.49;32.03;101667.13;6210713;23;20409;-85
2022/08/20 10:07:59;;;;;;;8.00;2.55;;;;;;;30.46;30.52;101664.75;6209832;23;20236;-85
2022/08/20 10:10:25;;;;;;;10.63;4.72;;;;;;;30.42;34.97;101657.09;6182453;23;20032;-85
2022/08/20 10:12:50;;;;;;;8.52;3.78;;;;;;;30.38;35.68;101653.84;6183834;23;20000;-85
2022/08/20 10:15:15;;;;;;;8.23;3.55;;;;;;;30.41;35.54;101660.84;6211624;23;20416;-85
2022/08/20 10:17:42;;;;;;;7.57;3.38;;;;;;;30.45;35.90;101656.72;6210849;23;20000;-85
2022/08/20 10:20:10;;;;;;;10.88;3.65;;;;;;;30.29;35.08;101660.34;6210405;23;20012;-86
2022/08/20 10:22:36;;;;;;;7.72;3.60;;;;;;;30.71;35.76;101659.28;6184118;23;20000;-85
2022/08/20 10:25:03;;;;;;;7.55;3.30;;;;;;;30.65;34.18;101673.63;6211188;23;20005;-85
2022/08/20 10:27:28;;;;;;;9.30;3.90;;;;;;;30.55;34.21;101672.94;6211357;23;20005;-85
2022/08/20 10:29:53;;;;;;;9.48;3.80;;;;;;;30.37;35.09;101657.59;6181309;23;20005;-86
2022/08/20 10:32:19;;;;;;;6.82;3.45;;;;;;;30.69;34.05;101664.06;6208180;23;20325;-86
2022/08/20 10:34:45;;;;;;;6.97;3.70;;;;;;;30.90;34.03;101666.25;6181200;23;20043;-85
2022/08/20 10:37:19;;;;;;;7.50;3.88;;;;;;;30.88;34.42;101669.16;6180767;23;20004;-85
2022/08/20 10:39:44;;;;;;;9.32;4.20;;;;;;;30.58;35.60;101667.13;6179448;23;20042;-86
2022/08/20 10:42:10;;;;;;;8.00;3.97;;;;;;;30.61;35.04;101662.19;6208405;23;20008;-86
2022/08/20 10:44:36;;;;;;;10.07;4.18;;;;;;;29.96;33.93;101676.66;6182447;23;20328;-86
2022/08/20 10:47:18;;;;;;;9.23;3.95;;;;;;;29.84;37.17;101679.84;6209331;23;20476;-86
2022/08/20 10:49:46;;;;;;;7.50;3.83;;;;;;;29.27;37.69;101674.19;6207656;23;20040;-86
2022/08/20 10:52:11;;;;;;;8.23;3.58;;;;;;;28.84;35.37;101667.81;6181873;23;20009;-86
2022/08/20 10:54:40;;;;;;;5.97;2.80;;;;;;;28.47;35.69;101667.06;6210103;23;20444;-86
2022/08/20 10:57:17;;;;;;;9.45;3.08;;;;;;;28.44;36.41;101671.94;6210896;23;20238;-86
2022/08/20 10:59:44;;;;;;;8.23;2.90;;;;;;;28.91;36.07;101674.31;6183499;23;20008;-87
2022/08/20 11:02:10;;;;;;;7.90;3.10;;;;;;;29.18;36.13;101678.75;6208467;23;20013;-86
2022/08/20 11:04:36;;;;;;;7.85;3.20;;;;;;;29.48;34.62;101669.19;6182567;23;20009;-87
2022/08/20 11:07:16;;;;;;;11.85;3.10;;;;;;;29.81;34.61;101666.56;6181661;23;20015;-86
2022/08/20 11:09:42;;;;;;;7.95;2.90;;;;;;;29.78;33.06;101673.19;6207520;23;20008;-87
2022/08/20 11:12:08;;;;;;;8.27;2.72;;;;;;;29.33;33.96;101673.53;6183218;23;20008;-85
2022/08/20 11:14:34;;;;;;;8.18;3.08;;;;;;;29.62;36.32;101667.72;6210159;23;20019;-87
2022/08/20 11:17:00;;;;;;;7.78;2.90;;;;;;;29.98;34.68;101666.44;6212690;23;20004;-87
2022/08/20 11:19:26;;;;;;;11.52;2.50;;;;;;;30.14;34.09;101670.22;6213005;23;20000;-87
2022/08/20 11:21:51;;;;;;;7.85;2.58;;;;;;;30.45;33.32;101662.19;6184146;23;20055;-87